createdAt,value
2017-12-19T00:00:10.088Z,0
2017-12-19T00:01:20.215Z,0
2017-12-19T00:02:30.504Z,0
2017-12-19T00:03:40.686Z,0
2017-12-19T00:04:50.869Z,0
2017-12-19T00:06:01.262Z,0
2017-12-19T00:07:11.495Z,0
2017-12-19T00:08:21.686Z,0
2017-12-19T00:09:31.862Z,0
2017-12-19T00:10:42.037Z,0
2017-12-19T00:11:51.886Z,0
2017-12-19T00:13:01.830Z,0
2017-12-19T00:14:11.954Z,0
2017-12-19T00:15:22.120Z,0
2017-12-19T00:16:32.011Z,0
2017-12-19T00:17:42.205Z,0
2017-12-19T00:18:51.720Z,0
2017-12-19T00:20:01.888Z,0
2017-12-19T00:21:11.825Z,0
2017-12-19T00:22:21.947Z,0
2017-12-19T00:23:32.086Z,0
2017-12-19T00:24:42.285Z,0
2017-12-19T00:25:52.433Z,0
2017-12-19T00:27:02.657Z,0
2017-12-19T00:28:11.884Z,0
2017-12-19T00:29:21.482Z,0
2017-12-19T00:30:31.660Z,0
2017-12-19T00:31:41.816Z,0
2017-12-19T00:32:51.927Z,0
2017-12-19T00:34:02.047Z,0
2017-12-19T00:35:11.966Z,0
2017-12-19T00:36:22.085Z,0
2017-12-19T00:37:32.248Z,0
2017-12-19T00:38:42.096Z,0
2017-12-19T00:39:51.956Z,0
2017-12-19T00:41:02.080Z,0
2017-12-19T00:42:12.204Z,0
2017-12-19T00:43:22.020Z,0
2017-12-19T00:44:32.147Z,0
2017-12-19T00:45:43.239Z,0
2017-12-19T00:46:53.352Z,0
2017-12-19T00:48:02.939Z,0
2017-12-19T00:49:13.062Z,0
2017-12-19T00:50:22.908Z,0
2017-12-19T00:51:33.038Z,0
2017-12-19T00:52:43.255Z,0
2017-12-19T00:53:53.498Z,0
2017-12-19T00:55:03.379Z,0
2017-12-19T00:56:13.479Z,0
2017-12-19T00:57:23.610Z,0
2017-12-19T00:58:33.759Z,0
2017-12-19T00:59:43.877Z,0
2017-12-19T01:00:54.046Z,0
2017-12-19T01:02:04.187Z,0
2017-12-19T01:03:15.311Z,0
2017-12-19T01:04:25.158Z,0
2017-12-19T01:05:35.279Z,0
2017-12-19T01:06:45.398Z,0
2017-12-19T01:07:55.513Z,0
2017-12-19T01:09:05.614Z,0
2017-12-19T01:10:15.779Z,0
2017-12-19T01:11:26.015Z,0
2017-12-19T01:12:36.131Z,0
2017-12-19T01:13:45.880Z,0
2017-12-19T01:14:56.065Z,0
2017-12-19T01:16:06.222Z,0
2017-12-19T01:17:16.415Z,0
2017-12-19T01:18:26.556Z,0
2017-12-19T01:19:36.746Z,0
2017-12-19T01:20:46.880Z,0
2017-12-19T01:21:56.969Z,0
2017-12-19T01:23:07.069Z,0
2017-12-19T01:24:17.271Z,0
2017-12-19T01:25:27.560Z,0
2017-12-19T01:26:37.715Z,0
2017-12-19T01:27:47.683Z,0
2017-12-19T01:28:57.259Z,0
2017-12-19T01:30:07.110Z,0
2017-12-19T01:31:16.990Z,0
2017-12-19T01:32:26.850Z,0
2017-12-19T01:33:37.007Z,0
2017-12-19T01:34:48.144Z,0
2017-12-19T01:35:58.244Z,0
2017-12-19T01:37:08.402Z,0
2017-12-19T01:38:18.556Z,0
2017-12-19T01:39:28.721Z,0
2017-12-19T01:40:38.861Z,0
2017-12-19T01:41:49.047Z,0
2017-12-19T01:42:59.226Z,0
2017-12-19T01:44:09.044Z,0
2017-12-19T01:45:18.933Z,0
2017-12-19T01:46:29.052Z,0
2017-12-19T01:47:39.165Z,0
2017-12-19T01:48:49.263Z,0
2017-12-19T01:49:59.388Z,0
2017-12-19T01:51:09.548Z,0
2017-12-19T01:52:19.459Z,0
2017-12-19T01:53:29.579Z,0
2017-12-19T01:54:39.682Z,0
2017-12-19T01:55:49.846Z,0
2017-12-19T01:57:00.046Z,0
2017-12-19T01:58:09.912Z,0
2017-12-19T01:59:19.754Z,0
2017-12-19T02:00:29.611Z,0
2017-12-19T02:01:39.480Z,0
2017-12-19T02:02:49.301Z,0
2017-12-19T02:03:59.424Z,0
2017-12-19T02:05:08.919Z,0
2017-12-19T02:06:19.041Z,0
2017-12-19T02:07:29.155Z,0
2017-12-19T02:08:39.276Z,0
2017-12-19T02:09:49.436Z,0
2017-12-19T02:10:59.276Z,0
2017-12-19T02:12:09.432Z,0
2017-12-19T02:13:19.607Z,0
2017-12-19T02:14:29.715Z,0
2017-12-19T02:15:39.816Z,0
2017-12-19T02:16:49.964Z,0
2017-12-19T02:18:00.107Z,0
2017-12-19T02:19:09.701Z,0
2017-12-19T02:20:19.807Z,0
2017-12-19T02:21:29.910Z,0
2017-12-19T02:22:40.077Z,0
2017-12-19T02:23:50.353Z,0
2017-12-19T02:25:00.522Z,0
2017-12-19T02:26:10.373Z,0
2017-12-19T02:27:20.515Z,0
2017-12-19T02:28:30.672Z,0
2017-12-19T02:29:40.515Z,0
2017-12-19T02:30:50.383Z,0
2017-12-19T02:32:00.225Z,0
2017-12-19T02:33:09.963Z,0
2017-12-19T02:34:20.062Z,0
2017-12-19T02:35:30.183Z,0
2017-12-19T02:36:39.802Z,0
2017-12-19T02:37:49.923Z,0
2017-12-19T02:39:00.046Z,0
2017-12-19T02:40:09.639Z,0
2017-12-19T02:41:19.766Z,0
2017-12-19T02:42:29.901Z,0
2017-12-19T02:43:39.490Z,0
2017-12-19T02:44:49.283Z,0
2017-12-19T02:45:58.885Z,0
2017-12-19T02:47:08.996Z,0
2017-12-19T02:48:19.099Z,0
2017-12-19T02:49:29.216Z,0
2017-12-19T02:50:39.365Z,0
2017-12-19T02:51:49.119Z,0
2017-12-19T02:52:59.218Z,0
2017-12-19T02:54:09.076Z,0
2017-12-19T02:55:19.268Z,0
2017-12-19T02:56:29.361Z,0
2017-12-19T02:57:39.202Z,0
2017-12-19T02:58:49.291Z,0
2017-12-19T02:59:59.395Z,0
2017-12-19T03:01:09.503Z,0
2017-12-19T03:02:20.615Z,0
2017-12-19T03:03:30.706Z,0
2017-12-19T03:04:40.804Z,0
2017-12-19T03:05:50.933Z,0
2017-12-19T03:07:01.049Z,0
2017-12-19T03:08:11.168Z,0
2017-12-19T03:09:21.264Z,0
2017-12-19T03:10:31.465Z,0
2017-12-19T03:11:41.605Z,0
2017-12-19T03:12:51.728Z,0
2017-12-19T03:14:01.577Z,0
2017-12-19T03:15:11.854Z,0
2017-12-19T03:16:22.084Z,0
2017-12-19T03:17:32.219Z,0
2017-12-19T03:18:42.424Z,0
2017-12-19T03:19:52.191Z,0
2017-12-19T03:21:02.304Z,0
2017-12-19T03:22:12.404Z,0
2017-12-19T03:23:22.506Z,0
2017-12-19T03:24:32.670Z,0
2017-12-19T03:25:42.785Z,0
2017-12-19T03:26:53.616Z,0
2017-12-19T03:28:03.711Z,0
2017-12-19T03:29:13.559Z,0
2017-12-19T03:30:23.422Z,0
2017-12-19T03:31:33.530Z,0
2017-12-19T03:32:43.059Z,0
2017-12-19T03:33:53.228Z,0
2017-12-19T03:35:03.070Z,0
2017-12-19T03:36:12.926Z,0
2017-12-19T03:37:23.107Z,0
2017-12-19T03:38:33.287Z,0
2017-12-19T03:39:43.170Z,0
2017-12-19T03:40:53.268Z,0
2017-12-19T03:42:03.148Z,0
2017-12-19T03:43:13.288Z,0
2017-12-19T03:44:23.202Z,0
2017-12-19T03:45:33.289Z,0
2017-12-19T03:46:43.142Z,0
2017-12-19T03:47:53.239Z,0
2017-12-19T03:49:03.116Z,0
2017-12-19T03:50:12.956Z,0
2017-12-19T03:51:22.843Z,0
2017-12-19T03:52:32.984Z,0
2017-12-19T03:53:43.275Z,0
2017-12-19T03:54:53.535Z,0
2017-12-19T03:56:03.749Z,0
2017-12-19T03:57:13.933Z,0
2017-12-19T03:58:23.812Z,0
2017-12-19T03:59:33.645Z,0
2017-12-19T04:00:43.770Z,0
2017-12-19T04:01:53.625Z,0
2017-12-19T04:03:03.466Z,0
2017-12-19T04:04:13.679Z,0
2017-12-19T04:05:23.529Z,0
2017-12-19T04:06:33.465Z,0
2017-12-19T04:07:43.155Z,0
2017-12-19T04:08:53.295Z,0
2017-12-19T04:10:03.462Z,0
2017-12-19T04:11:13.686Z,0
2017-12-19T04:12:23.995Z,0
2017-12-19T04:13:34.194Z,0
2017-12-19T04:14:43.949Z,0
2017-12-19T04:15:53.803Z,0
2017-12-19T04:17:03.540Z,0
2017-12-19T04:18:13.389Z,0
2017-12-19T04:19:22.906Z,0
2017-12-19T04:20:32.965Z,0
2017-12-19T04:21:43.192Z,0
2017-12-19T04:22:53.399Z,0
2017-12-19T04:24:03.275Z,0
2017-12-19T04:25:12.894Z,0
2017-12-19T04:26:22.816Z,0
2017-12-19T04:27:32.950Z,0
2017-12-19T04:28:43.074Z,0
2017-12-19T04:29:53.284Z,0
2017-12-19T04:31:03.214Z,0
2017-12-19T04:32:13.063Z,0
2017-12-19T04:33:23.172Z,0
2017-12-19T04:34:33.266Z,0
2017-12-19T04:35:43.092Z,0
2017-12-19T04:36:53.193Z,0
2017-12-19T04:38:03.388Z,0
2017-12-19T04:39:13.231Z,0
2017-12-19T04:40:23.333Z,0
2017-12-19T04:41:33.533Z,0
2017-12-19T04:42:43.424Z,0
2017-12-19T04:43:53.534Z,0
2017-12-19T04:45:03.380Z,0
2017-12-19T04:46:13.233Z,0
2017-12-19T04:47:23.331Z,0
2017-12-19T04:48:33.432Z,0
2017-12-19T04:49:43.704Z,0
2017-12-19T04:50:53.443Z,0
2017-12-19T04:52:03.424Z,0
2017-12-19T04:53:13.543Z,0
2017-12-19T04:54:23.754Z,0
2017-12-19T04:55:33.612Z,0
2017-12-19T04:56:43.471Z,0
2017-12-19T04:57:53.629Z,0
2017-12-19T04:59:03.473Z,0
2017-12-19T05:00:13.155Z,0
2017-12-19T05:01:23.356Z,0
2017-12-19T05:02:33.445Z,0
2017-12-19T05:03:43.297Z,0
2017-12-19T05:04:53.437Z,0
2017-12-19T05:06:03.871Z,0
2017-12-19T05:07:13.747Z,0
2017-12-19T05:08:23.866Z,0
2017-12-19T05:09:33.839Z,0
2017-12-19T05:10:43.734Z,0
2017-12-19T05:11:53.676Z,0
2017-12-19T05:13:03.563Z,0
2017-12-19T05:14:13.679Z,0
2017-12-19T05:15:23.824Z,0
2017-12-19T05:16:33.597Z,0
2017-12-19T05:17:43.437Z,0
2017-12-19T05:18:53.576Z,0
2017-12-19T05:20:03.666Z,0
2017-12-19T05:21:13.786Z,0
2017-12-19T05:22:23.890Z,0
2017-12-19T05:23:34.000Z,0
2017-12-19T05:24:44.162Z,0
2017-12-19T05:25:54.308Z,0
2017-12-19T05:27:04.144Z,0
2017-12-19T05:28:14.274Z,0
2017-12-19T05:29:24.143Z,0
2017-12-19T05:30:34.254Z,0
2017-12-19T05:31:44.412Z,0
2017-12-19T05:32:54.638Z,0
2017-12-19T05:34:04.770Z,0
2017-12-19T05:35:14.903Z,0
2017-12-19T05:36:25.015Z,0
2017-12-19T05:37:35.143Z,0
2017-12-19T05:38:44.641Z,0
2017-12-19T05:39:54.571Z,0
2017-12-19T05:41:04.200Z,0
2017-12-19T05:42:14.452Z,0
2017-12-19T05:43:24.561Z,0
2017-12-19T05:44:34.701Z,0
2017-12-19T05:45:44.790Z,0
2017-12-19T05:46:54.889Z,0
2017-12-19T05:48:05.098Z,0
2017-12-19T05:49:14.954Z,0
2017-12-19T05:50:25.048Z,0
2017-12-19T05:51:34.946Z,0
2017-12-19T05:52:45.063Z,0
2017-12-19T05:53:55.242Z,0
2017-12-19T05:55:05.382Z,0
2017-12-19T05:56:15.495Z,0
2017-12-19T05:57:25.725Z,0
2017-12-19T05:58:35.886Z,0
2017-12-19T05:59:45.627Z,0
2017-12-19T06:00:55.479Z,0
2017-12-19T06:02:05.652Z,0
2017-12-19T06:03:15.933Z,0
2017-12-19T06:04:26.123Z,0
2017-12-19T06:05:36.246Z,0
2017-12-19T06:06:46.211Z,0
2017-12-19T06:07:56.340Z,0
2017-12-19T06:09:05.944Z,0
2017-12-19T06:10:15.692Z,0
2017-12-19T06:11:25.842Z,0
2017-12-19T06:12:35.952Z,0
2017-12-19T06:13:46.061Z,0
2017-12-19T06:14:55.808Z,0
2017-12-19T06:16:06.047Z,0
2017-12-19T06:17:15.896Z,0
2017-12-19T06:18:26.049Z,0
2017-12-19T06:19:35.896Z,0
2017-12-19T06:20:45.985Z,0
2017-12-19T06:21:57.088Z,0
2017-12-19T06:23:07.203Z,0
2017-12-19T06:24:17.320Z,0
2017-12-19T06:25:27.297Z,0
2017-12-19T06:26:37.410Z,0
2017-12-19T06:27:47.528Z,0
2017-12-19T06:28:57.660Z,0
2017-12-19T06:30:07.760Z,0
2017-12-19T06:31:17.878Z,0
2017-12-19T06:32:27.990Z,0
2017-12-19T06:33:38.118Z,0
2017-12-19T06:34:47.983Z,0
2017-12-19T06:35:57.848Z,0
2017-12-19T06:37:08.026Z,0
2017-12-19T06:38:17.576Z,0
2017-12-19T06:39:27.676Z,0
2017-12-19T06:40:37.779Z,0
2017-12-19T06:41:47.672Z,0
2017-12-19T06:42:57.781Z,0
2017-12-19T06:44:07.876Z,0
2017-12-19T06:45:17.756Z,0
2017-12-19T06:46:27.235Z,0
2017-12-19T06:47:37.473Z,0
2017-12-19T06:48:47.706Z,0
2017-12-19T06:49:57.909Z,0
2017-12-19T06:51:08.015Z,0
2017-12-19T06:52:18.116Z,0
2017-12-19T06:53:28.282Z,0
2017-12-19T06:54:38.465Z,0
2017-12-19T06:55:48.661Z,0
2017-12-19T06:56:58.432Z,0
2017-12-19T06:58:08.646Z,0
2017-12-19T06:59:18.859Z,0
2017-12-19T07:00:29.117Z,0
2017-12-19T07:01:39.282Z,0
2017-12-19T07:02:49.135Z,0
2017-12-19T07:03:58.969Z,0
2017-12-19T07:05:09.096Z,0
2017-12-19T07:06:19.211Z,0
2017-12-19T07:07:28.751Z,0
2017-12-19T07:08:38.278Z,0
2017-12-19T07:09:48.518Z,0
2017-12-19T07:10:58.693Z,0
2017-12-19T07:12:08.555Z,0
2017-12-19T07:13:18.680Z,0
2017-12-19T07:14:28.842Z,0
2017-12-19T07:15:38.725Z,0
2017-12-19T07:16:48.882Z,0
2017-12-19T07:17:59.072Z,0
2017-12-19T07:19:09.183Z,0
2017-12-19T07:20:19.310Z,0
2017-12-19T07:21:29.431Z,5
2017-12-19T07:22:39.276Z,5
2017-12-19T07:23:49.434Z,5
2017-12-19T07:25:00.396Z,5
2017-12-19T07:26:10.508Z,5
2017-12-19T07:27:20.636Z,5
2017-12-19T07:28:30.888Z,5
2017-12-19T07:29:40.741Z,5
2017-12-19T07:30:50.877Z,5
2017-12-19T07:32:00.754Z,5
2017-12-19T07:33:10.611Z,5
2017-12-19T07:34:20.521Z,5
2017-12-19T07:35:30.609Z,5
2017-12-19T07:36:40.712Z,10
2017-12-19T07:37:51.541Z,10
2017-12-19T07:39:01.501Z,10
2017-12-19T07:40:11.697Z,15
2017-12-19T07:41:21.622Z,15
2017-12-19T07:42:31.739Z,20
2017-12-19T07:43:41.949Z,20
2017-12-19T07:44:52.196Z,25
2017-12-19T07:46:02.361Z,25
2017-12-19T07:47:12.290Z,25
2017-12-19T07:48:22.125Z,25
2017-12-19T07:49:32.224Z,25
2017-12-19T07:50:42.368Z,30
2017-12-19T07:51:52.244Z,35
2017-12-19T07:53:02.099Z,35
2017-12-19T07:54:12.207Z,40
2017-12-19T07:55:22.310Z,45
2017-12-19T07:56:32.511Z,45
2017-12-19T07:57:42.672Z,50
2017-12-19T07:58:52.523Z,55
2017-12-19T08:00:02.717Z,60
2017-12-19T08:01:12.480Z,60
2017-12-19T08:02:22.575Z,60
2017-12-19T08:03:32.822Z,65
2017-12-19T08:04:42.662Z,65
2017-12-19T08:05:52.621Z,65
2017-12-19T08:07:02.841Z,70
2017-12-19T08:08:12.419Z,75
2017-12-19T08:09:22.316Z,70
2017-12-19T08:10:32.412Z,50
2017-12-19T08:11:42.547Z,40
2017-12-19T08:12:52.695Z,40
2017-12-19T08:14:02.833Z,40
2017-12-19T08:15:12.678Z,40
2017-12-19T08:16:23.400Z,35
2017-12-19T08:17:33.507Z,30
2017-12-19T08:18:43.687Z,30
2017-12-19T08:19:53.822Z,25
2017-12-19T08:21:03.940Z,20
2017-12-19T08:22:13.796Z,20
2017-12-19T08:23:24.024Z,20
2017-12-19T08:24:34.234Z,25
2017-12-19T08:25:44.084Z,25
2017-12-19T08:26:54.002Z,20
2017-12-19T08:28:03.855Z,25
2017-12-19T08:29:13.986Z,25
2017-12-19T08:30:23.740Z,25
2017-12-19T08:31:33.850Z,25
2017-12-19T08:32:43.995Z,25
2017-12-19T08:33:54.816Z,25
2017-12-19T08:35:04.964Z,25
2017-12-19T08:36:14.806Z,25
2017-12-19T08:37:24.799Z,25
2017-12-19T08:38:35.014Z,25
2017-12-19T08:39:45.165Z,30
2017-12-19T08:40:55.324Z,30
2017-12-19T08:42:05.097Z,30
2017-12-19T08:43:16.211Z,30
2017-12-19T08:44:26.312Z,30
2017-12-19T08:45:35.816Z,25
2017-12-19T08:46:47.098Z,25
2017-12-19T08:47:57.235Z,25
2017-12-19T08:49:07.362Z,25
2017-12-19T08:50:17.658Z,30
2017-12-19T08:51:27.439Z,35
2017-12-19T08:52:37.621Z,40
2017-12-19T08:53:47.769Z,45
2017-12-19T08:54:57.652Z,50
2017-12-19T08:56:07.872Z,50
2017-12-19T08:57:17.369Z,45
2017-12-19T08:58:27.475Z,45
2017-12-19T08:59:37.601Z,45
2017-12-19T09:00:47.764Z,50
2017-12-19T09:01:57.988Z,50
2017-12-19T09:03:08.108Z,45
2017-12-19T09:04:18.411Z,45
2017-12-19T09:05:28.545Z,50
2017-12-19T09:06:38.395Z,60
2017-12-19T09:07:48.543Z,60
2017-12-19T09:08:58.674Z,60
2017-12-19T09:10:08.442Z,60
2017-12-19T09:11:18.290Z,65
2017-12-19T09:12:28.166Z,70
2017-12-19T09:13:38.460Z,70
2017-12-19T09:14:48.263Z,65
2017-12-19T09:15:58.359Z,65
2017-12-19T09:17:08.459Z,65
2017-12-19T09:18:18.635Z,65
2017-12-19T09:19:28.513Z,70
2017-12-19T09:20:38.695Z,75
2017-12-19T09:21:48.495Z,70
2017-12-19T09:22:58.644Z,65
2017-12-19T09:24:08.808Z,65
2017-12-19T09:25:18.664Z,65
2017-12-19T09:26:28.516Z,65
2017-12-19T09:27:38.621Z,70
2017-12-19T09:28:48.579Z,80
2017-12-19T09:29:58.501Z,80
2017-12-19T09:31:08.786Z,85
2017-12-19T09:32:18.945Z,95
2017-12-19T09:33:28.814Z,95
2017-12-19T09:34:38.561Z,100
2017-12-19T09:35:48.682Z,105
2017-12-19T09:36:58.853Z,105
2017-12-19T09:38:09.168Z,100
2017-12-19T09:39:19.329Z,105
2017-12-19T09:40:29.197Z,110
2017-12-19T09:41:39.309Z,110
2017-12-19T09:42:49.452Z,115
2017-12-19T09:43:59.617Z,115
2017-12-19T09:45:09.838Z,110
2017-12-19T09:46:19.999Z,110
2017-12-19T09:47:30.258Z,105
2017-12-19T09:48:40.230Z,100
2017-12-19T09:49:50.090Z,100
2017-12-19T09:50:59.974Z,110
2017-12-19T09:52:09.882Z,110
2017-12-19T09:53:20.010Z,120
2017-12-19T09:54:29.900Z,120
2017-12-19T09:55:40.042Z,105
2017-12-19T09:56:49.838Z,100
2017-12-19T09:57:59.584Z,100
2017-12-19T09:59:09.169Z,105
2017-12-19T10:00:19.337Z,110
2017-12-19T10:01:29.446Z,110
2017-12-19T10:02:39.561Z,115
2017-12-19T10:03:50.744Z,110
2017-12-19T10:05:00.843Z,105
2017-12-19T10:06:11.052Z,95
2017-12-19T10:07:20.571Z,80
2017-12-19T10:08:31.641Z,75
2017-12-19T10:09:41.748Z,70
2017-12-19T10:10:51.884Z,65
2017-12-19T10:12:01.989Z,65
2017-12-19T10:13:12.200Z,65
2017-12-19T10:14:22.068Z,70
2017-12-19T10:15:32.338Z,70
2017-12-19T10:16:43.198Z,70
2017-12-19T10:17:53.335Z,75
2017-12-19T10:19:03.537Z,80
2017-12-19T10:20:13.304Z,85
2017-12-19T10:21:23.411Z,90
2017-12-19T10:22:33.544Z,95
2017-12-19T10:23:43.480Z,95
2017-12-19T10:24:53.616Z,90
2017-12-19T10:26:03.738Z,90
2017-12-19T10:27:13.889Z,95
2017-12-19T10:28:23.751Z,100
2017-12-19T10:29:33.879Z,105
2017-12-19T10:30:44.112Z,105
2017-12-19T10:31:54.300Z,100
2017-12-19T10:33:04.436Z,100
2017-12-19T10:34:14.368Z,95
2017-12-19T10:35:24.488Z,105
2017-12-19T10:36:34.629Z,115
2017-12-19T10:37:44.726Z,115
2017-12-19T10:38:54.860Z,120
2017-12-19T10:40:05.019Z,125
2017-12-19T10:41:14.862Z,140
2017-12-19T10:42:24.800Z,140
2017-12-19T10:43:34.669Z,135
2017-12-19T10:44:44.560Z,135
2017-12-19T10:45:54.413Z,135
2017-12-19T10:47:04.521Z,135
2017-12-19T10:48:14.264Z,135
2017-12-19T10:49:23.856Z,150
2017-12-19T10:50:34.010Z,155
2017-12-19T10:51:44.224Z,145
2017-12-19T10:52:54.431Z,130
2017-12-19T10:54:04.311Z,125
2017-12-19T10:55:14.442Z,130
2017-12-19T10:56:24.557Z,125
2017-12-19T10:57:34.740Z,130
2017-12-19T10:58:44.842Z,125
2017-12-19T10:59:54.892Z,130
2017-12-19T11:01:04.733Z,135
2017-12-19T11:02:14.846Z,140
2017-12-19T11:03:25.071Z,125
2017-12-19T11:04:35.181Z,115
2017-12-19T11:05:45.068Z,115
2017-12-19T11:06:55.209Z,105
2017-12-19T11:08:05.424Z,115
2017-12-19T11:09:15.617Z,115
2017-12-19T11:10:25.116Z,115
2017-12-19T11:11:34.990Z,115
2017-12-19T11:12:45.109Z,110
2017-12-19T11:13:55.234Z,105
2017-12-19T11:15:05.126Z,110
2017-12-19T11:16:15.051Z,100
2017-12-19T11:17:25.264Z,100
2017-12-19T11:18:35.065Z,115
2017-12-19T11:19:44.934Z,110
2017-12-19T11:20:55.105Z,115
2017-12-19T11:22:05.207Z,125
2017-12-19T11:23:15.060Z,130
2017-12-19T11:24:25.250Z,140
2017-12-19T11:25:35.113Z,135
2017-12-19T11:26:44.989Z,125
2017-12-19T11:27:54.834Z,140
2017-12-19T11:29:04.699Z,155
2017-12-19T11:30:14.864Z,155
2017-12-19T11:31:25.080Z,155
2017-12-19T11:32:35.257Z,165
2017-12-19T11:33:45.100Z,145
2017-12-19T11:34:55.232Z,150
2017-12-19T11:36:05.454Z,175
2017-12-19T11:37:15.309Z,175
2017-12-19T11:38:25.517Z,155
2017-12-19T11:39:35.672Z,165
2017-12-19T11:40:45.793Z,165
2017-12-19T11:41:55.980Z,155
2017-12-19T11:43:05.747Z,175
2017-12-19T11:44:15.931Z,170
2017-12-19T11:45:26.088Z,145
2017-12-19T11:46:36.210Z,155
2017-12-19T11:47:46.336Z,150
2017-12-19T11:48:56.455Z,140
2017-12-19T11:50:06.305Z,145
2017-12-19T11:51:16.427Z,125
2017-12-19T11:52:26.575Z,135
2017-12-19T11:53:36.688Z,135
2017-12-19T11:54:46.834Z,135
2017-12-19T11:55:56.955Z,130
2017-12-19T11:57:06.717Z,145
2017-12-19T11:58:16.845Z,150
2017-12-19T11:59:26.619Z,155
2017-12-19T12:00:36.757Z,155
2017-12-19T12:01:46.673Z,145
2017-12-19T12:02:56.563Z,165
2017-12-19T12:04:06.687Z,150
2017-12-19T12:05:16.807Z,140
2017-12-19T12:06:26.565Z,120
2017-12-19T12:07:36.702Z,125
2017-12-19T12:08:46.819Z,125
2017-12-19T12:09:56.935Z,125
2017-12-19T12:11:07.187Z,130
2017-12-19T12:12:18.059Z,120
2017-12-19T12:13:27.946Z,120
2017-12-19T12:14:37.718Z,115
2017-12-19T12:15:47.654Z,115
2017-12-19T12:16:57.846Z,115
2017-12-19T12:18:07.600Z,110
2017-12-19T12:19:17.754Z,110
2017-12-19T12:20:27.909Z,115
2017-12-19T12:21:38.153Z,115
2017-12-19T12:22:48.353Z,125
2017-12-19T12:23:58.628Z,130
2017-12-19T12:25:08.768Z,125
2017-12-19T12:26:18.911Z,115
2017-12-19T12:27:28.672Z,115
2017-12-19T12:28:38.820Z,120
2017-12-19T12:29:48.940Z,120
2017-12-19T12:30:58.795Z,120
2017-12-19T12:32:08.810Z,115
2017-12-19T12:33:19.046Z,115
2017-12-19T12:34:28.976Z,115
2017-12-19T12:35:39.115Z,105
2017-12-19T12:36:49.229Z,100
2017-12-19T12:37:59.115Z,90
2017-12-19T12:39:08.892Z,95
2017-12-19T12:40:19.957Z,95
2017-12-19T12:41:30.072Z,95
2017-12-19T12:42:39.678Z,95
2017-12-19T12:43:49.785Z,90
2017-12-19T12:45:00.028Z,95
2017-12-19T12:46:09.817Z,105
2017-12-19T12:47:19.433Z,110
2017-12-19T12:48:28.784Z,110
2017-12-19T12:49:38.389Z,105
2017-12-19T12:50:48.519Z,110
2017-12-19T12:51:58.392Z,115
2017-12-19T12:53:08.520Z,130
2017-12-19T12:54:18.649Z,125
2017-12-19T12:55:28.804Z,120
2017-12-19T12:56:38.944Z,115
2017-12-19T12:57:49.054Z,110
2017-12-19T12:58:58.576Z,105
2017-12-19T13:00:08.700Z,90
2017-12-19T13:01:18.635Z,80
2017-12-19T13:02:28.256Z,80
2017-12-19T13:03:38.168Z,80
2017-12-19T13:04:48.089Z,80
2017-12-19T13:05:58.310Z,75
2017-12-19T13:07:08.436Z,65
2017-12-19T13:08:18.288Z,60
2017-12-19T13:09:28.150Z,60
2017-12-19T13:10:37.922Z,60
2017-12-19T13:11:47.884Z,60
2017-12-19T13:12:58.091Z,65
2017-12-19T13:14:08.189Z,60
2017-12-19T13:15:17.964Z,60
2017-12-19T13:16:28.073Z,60
2017-12-19T13:17:38.194Z,55
2017-12-19T13:18:48.335Z,55
2017-12-19T13:19:58.592Z,65
2017-12-19T13:21:08.734Z,60
2017-12-19T13:22:18.923Z,60
2017-12-19T13:23:28.771Z,65
2017-12-19T13:24:38.984Z,65
2017-12-19T13:25:49.280Z,70
2017-12-19T13:26:59.148Z,65
2017-12-19T13:28:09.251Z,65
2017-12-19T13:29:19.367Z,55
2017-12-19T13:30:29.242Z,55
2017-12-19T13:31:39.352Z,55
2017-12-19T13:32:48.983Z,55
2017-12-19T13:33:59.113Z,60
2017-12-19T13:35:09.249Z,60
2017-12-19T13:36:19.379Z,55
2017-12-19T13:37:29.577Z,50
2017-12-19T13:38:39.701Z,55
2017-12-19T13:39:49.558Z,60
2017-12-19T13:40:59.432Z,60
2017-12-19T13:42:09.569Z,60
2017-12-19T13:43:19.439Z,60
2017-12-19T13:44:29.297Z,55
2017-12-19T13:45:39.169Z,55
2017-12-19T13:46:49.308Z,45
2017-12-19T13:47:59.432Z,45
2017-12-19T13:49:09.525Z,45
2017-12-19T13:50:19.523Z,50
2017-12-19T13:51:29.745Z,45
2017-12-19T13:52:39.882Z,55
2017-12-19T13:53:49.726Z,60
2017-12-19T13:54:59.225Z,55
2017-12-19T13:56:09.339Z,50
2017-12-19T13:57:19.470Z,45
2017-12-19T13:58:29.693Z,45
2017-12-19T13:59:39.449Z,40
2017-12-19T14:00:49.847Z,35
2017-12-19T14:01:59.971Z,35
2017-12-19T14:03:10.119Z,25
2017-12-19T14:04:20.272Z,20
2017-12-19T14:05:30.141Z,20
2017-12-19T14:06:40.132Z,15
2017-12-19T14:07:50.275Z,15
2017-12-19T14:09:00.416Z,15
2017-12-19T14:10:10.292Z,15
2017-12-19T14:11:20.160Z,15
2017-12-19T14:12:30.371Z,15
2017-12-19T14:13:39.947Z,15
2017-12-19T14:14:50.163Z,15
2017-12-19T14:16:00.380Z,15
2017-12-19T14:17:10.533Z,15
2017-12-19T14:18:20.658Z,15
2017-12-19T14:19:30.765Z,15
2017-12-19T14:20:40.649Z,15
2017-12-19T14:21:50.268Z,20
2017-12-19T14:23:00.055Z,20
2017-12-19T14:24:10.010Z,15
2017-12-19T14:25:20.187Z,15
2017-12-19T14:26:32.347Z,15
2017-12-19T14:27:42.586Z,15
2017-12-19T14:28:52.781Z,15
2017-12-19T14:30:02.967Z,15
2017-12-19T14:31:13.121Z,15
2017-12-19T14:32:23.240Z,15
2017-12-19T14:33:33.381Z,10
2017-12-19T14:34:43.559Z,15
2017-12-19T14:35:53.849Z,10
2017-12-19T14:37:04.041Z,10
2017-12-19T14:38:14.199Z,5
2017-12-19T14:39:24.418Z,10
2017-12-19T14:40:34.569Z,10
2017-12-19T14:41:44.804Z,10
2017-12-19T14:42:55.103Z,5
2017-12-19T14:44:06.283Z,5
2017-12-19T14:45:16.462Z,5
2017-12-19T14:46:26.337Z,5
2017-12-19T14:47:36.493Z,0
2017-12-19T14:48:46.692Z,5
2017-12-19T14:49:56.836Z,0
2017-12-19T14:51:06.991Z,0
2017-12-19T14:52:16.918Z,0
2017-12-19T14:53:27.226Z,0
2017-12-19T14:54:37.370Z,0
2017-12-19T14:55:47.591Z,0
2017-12-19T14:56:57.739Z,0
2017-12-19T14:58:07.497Z,0
2017-12-19T14:59:18.670Z,0
2017-12-19T15:00:28.872Z,0
2017-12-19T15:01:38.807Z,0
2017-12-19T15:02:48.920Z,0
2017-12-19T15:03:59.068Z,0
2017-12-19T15:05:09.327Z,0
2017-12-19T15:06:19.630Z,0
2017-12-19T15:07:29.780Z,0
2017-12-19T15:08:39.914Z,0
2017-12-19T15:09:50.174Z,0
2017-12-19T15:11:00.309Z,0
2017-12-19T15:12:10.220Z,0
2017-12-19T15:13:20.387Z,0
2017-12-19T15:14:30.593Z,0
2017-12-19T15:15:40.376Z,0
2017-12-19T15:16:50.568Z,0
2017-12-19T15:18:00.767Z,0
2017-12-19T15:19:10.944Z,0
2017-12-19T15:20:20.806Z,0
2017-12-19T15:21:30.932Z,0
2017-12-19T15:22:41.256Z,0
2017-12-19T15:23:51.179Z,0
2017-12-19T15:25:01.057Z,0
2017-12-19T15:26:10.946Z,0
2017-12-19T15:27:21.081Z,0
2017-12-19T15:28:31.235Z,0
2017-12-19T15:29:42.428Z,0
2017-12-19T15:30:52.333Z,0
2017-12-19T15:32:02.486Z,0
2017-12-19T15:33:12.630Z,0
2017-12-19T15:34:22.423Z,0
2017-12-19T15:35:32.599Z,0
2017-12-19T15:36:42.792Z,0
2017-12-19T15:37:53.720Z,0
2017-12-19T15:39:03.860Z,0
2017-12-19T15:40:13.769Z,0
2017-12-19T15:41:23.910Z,0
2017-12-19T15:42:34.067Z,0
2017-12-19T15:43:43.979Z,0
2017-12-19T15:44:54.120Z,0
2017-12-19T15:46:04.395Z,0
2017-12-19T15:47:14.547Z,0
2017-12-19T15:48:24.375Z,0
2017-12-19T15:49:34.272Z,0
2017-12-19T15:50:44.480Z,0
2017-12-19T15:51:54.608Z,0
2017-12-19T15:53:04.870Z,0
2017-12-19T15:54:15.178Z,0
2017-12-19T15:55:25.344Z,0
2017-12-19T15:56:34.863Z,0
2017-12-19T15:57:45.004Z,0
2017-12-19T15:58:55.166Z,0
2017-12-19T16:00:05.297Z,0
2017-12-19T16:01:16.551Z,0
2017-12-19T16:02:26.705Z,0
2017-12-19T16:03:36.974Z,0
2017-12-19T16:04:47.135Z,0
2017-12-19T16:05:57.332Z,0
2017-12-19T16:07:07.246Z,0
2017-12-19T16:08:17.431Z,0
2017-12-19T16:09:27.301Z,0
2017-12-19T16:10:37.480Z,0
2017-12-19T16:12:19.489Z,0
2017-12-19T16:13:29.609Z,0
2017-12-19T16:14:39.844Z,0
2017-12-19T16:15:50.031Z,0
2017-12-19T16:17:00.164Z,0
2017-12-19T16:18:10.337Z,0
2017-12-19T16:19:20.570Z,0
2017-12-19T16:20:30.472Z,0
2017-12-19T16:21:40.610Z,0
2017-12-19T16:22:50.485Z,0
2017-12-19T16:24:00.644Z,0
2017-12-19T16:25:10.537Z,0
2017-12-19T16:26:20.522Z,0
2017-12-19T16:27:30.740Z,0
2017-12-19T16:28:40.692Z,0
2017-12-19T16:29:50.587Z,0
2017-12-19T16:31:00.741Z,0
2017-12-19T16:32:10.975Z,0
2017-12-19T16:33:20.876Z,0
2017-12-19T16:34:31.155Z,0
2017-12-19T16:35:41.325Z,0
2017-12-19T16:36:51.506Z,0
2017-12-19T16:38:01.655Z,0
2017-12-19T16:39:11.622Z,0
2017-12-19T16:40:21.477Z,0
2017-12-19T16:41:31.377Z,0
2017-12-19T16:42:40.909Z,0
2017-12-19T16:43:51.025Z,0
2017-12-19T16:45:01.222Z,0
2017-12-19T16:46:11.334Z,0
2017-12-19T16:47:21.481Z,0
2017-12-19T16:48:31.616Z,0
2017-12-19T16:49:41.787Z,0
2017-12-19T16:50:51.696Z,0
2017-12-19T16:52:01.693Z,0
2017-12-19T16:53:11.877Z,0
2017-12-19T16:54:22.992Z,0